Jacky L O'neal — WDG3892 — position and weather

sailwx.info

Track history (hours):
 
Tides and Currents Weather Stations Pressure Air Temp Water Temp Dewpoint Dewpoint Depression Visibility Wind Speed Wind Dir Waves Ship Positions

Jacky L O'neal

Owner: American Commercial Lines LLC, Jeffersonville, IN. More information available from US FCC via Universal Licensing System and Coast Guard Vessel Documentation Center.

Last reported at 2016-Feb-08 13:33 UTC. Time now 2016-Feb-10 19:56 UTC.
Position N 32°40' W 091°07'.

Length 70 m.

Type: Tow > 200 m length. MMSI: 367530760.

Date/timePositionNaut miles runAvg speedWind from/ knotsBaromVisibWave heightAir tempDewpointWater temp
2016-Feb-08 13:33N 32°40' W 091°07'3 3.0
2016-Feb-08 12:33N 32°38' W 091°09'3 3.0
2016-Feb-08 11:33N 32°35' W 091°07'4 4.0
2016-Feb-08 10:33N 32°31' W 091°06'4 4.2
2016-Feb-08 09:33N 32°27' W 091°05'5 4.5
2016-Feb-08 08:33N 32°25' W 090°60'4 3.9
2016-Feb-08 07:33N 32°21' W 090°60'3 2.5
2016-Feb-08 06:33N 32°21' W 090°57'3 2.9
2016-Feb-08 05:33N 32°19' W 090°54'3 2.5
2016-Feb-08 04:33N 32°17' W 090°57'5 4.7
2016-Feb-08 03:33N 32°13' W 090°59'4 4.4
2016-Feb-08 02:33N 32°09' W 091°00'4 3.9
2016-Feb-08 01:27N 32°08' W 091°05'3 3.4
2016-Feb-08 00:32N 32°05' W 091°04'2 1.8
2016-Feb-07 23:27N 32°03' W 091°03'8 4.4
2016-Feb-07 21:33N 31°58' W 091°11'  
2016-Feb-03 07:12N 30°44' W 091°28'0 0.0
2016-Feb-03 05:31N 30°44' W 091°28'0 0.0
2016-Feb-03 04:20N 30°44' W 091°28'74 1.8
2016-Feb-01 11:30N 31°57' W 091°12'7 7.5
2016-Feb-01 10:33N 32°01' W 091°05'7 6.7
2016-Feb-01 09:33N 32°07' W 091°07'6 5.9
2016-Feb-01 08:33N 32°09' W 091°00'8 7.5
2016-Feb-01 07:33N 32°16' W 090°57'5 4.5
2016-Feb-01 06:33N 32°21' W 090°58'6 6.0
2016-Feb-01 05:33N 32°26' W 091°02'7 6.2
2016-Feb-01 04:22N 32°33' W 091°06'6 7.0
2016-Feb-01 03:33N 32°38' W 091°09'8 6.7
2016-Feb-01 02:24N 32°44' W 091°04'  
Track history (hours):
 
Tides and Currents Weather Stations Pressure Air Temp Water Temp Dewpoint Dewpoint Depression Visibility Wind Speed Wind Dir Waves Ship Positions

Jacky L O'neal

Owner: American Commercial Lines LLC, Jeffersonville, IN. More information available from US FCC via Universal Licensing System and Coast Guard Vessel Documentation Center.

Last reported at 2016-Feb-08 13:33 UTC. Time now 2016-Feb-10 19:56 UTC.
Position N 32°40' W 091°07'.

Length 70 m.

Type: Tow > 200 m length. MMSI: 367530760.

Date/timePositionNaut miles runAvg speedWind from/ knotsBaromVisibWave heightAir tempDewpointWater temp
2016-Feb-08 13:33N 32°40' W 091°07'3 3.0
2016-Feb-08 12:33N 32°38' W 091°09'3 3.0
2016-Feb-08 11:33N 32°35' W 091°07'4 4.0
2016-Feb-08 10:33N 32°31' W 091°06'4 4.2
2016-Feb-08 09:33N 32°27' W 091°05'5 4.5
2016-Feb-08 08:33N 32°25' W 090°60'4 3.9
2016-Feb-08 07:33N 32°21' W 090°60'3 2.5
2016-Feb-08 06:33N 32°21' W 090°57'3 2.9
2016-Feb-08 05:33N 32°19' W 090°54'3 2.5
2016-Feb-08 04:33N 32°17' W 090°57'5 4.7
2016-Feb-08 03:33N 32°13' W 090°59'4 4.4
2016-Feb-08 02:33N 32°09' W 091°00'4 3.9
2016-Feb-08 01:27N 32°08' W 091°05'3 3.4
2016-Feb-08 00:32N 32°05' W 091°04'2 1.8
2016-Feb-07 23:27N 32°03' W 091°03'8 4.4
2016-Feb-07 21:33N 31°58' W 091°11'  
2016-Feb-03 07:12N 30°44' W 091°28'0 0.0
2016-Feb-03 05:31N 30°44' W 091°28'0 0.0
2016-Feb-03 04:20N 30°44' W 091°28'74 1.8
2016-Feb-01 11:30N 31°57' W 091°12'7 7.5
2016-Feb-01 10:33N 32°01' W 091°05'7 6.7
2016-Feb-01 09:33N 32°07' W 091°07'6 5.9
2016-Feb-01 08:33N 32°09' W 091°00'8 7.5
2016-Feb-01 07:33N 32°16' W 090°57'5 4.5
2016-Feb-01 06:33N 32°21' W 090°58'6 6.0
2016-Feb-01 05:33N 32°26' W 091°02'7 6.2
2016-Feb-01 04:22N 32°33' W 091°06'6 7.0
2016-Feb-01 03:33N 32°38' W 091°09'8 6.7
2016-Feb-01 02:24N 32°44' W 091°04'  

Dump ship's entire track history